sensor_id;sensor_type;location;lat;lon;timestamp;P1;durP1;ratioP1;P2;durP2;ratioP2
62610;SDS011;48683;48.084;17.272;2022-12-29T00:02:04;16.45;;;10.10;;
62610;SDS011;48683;48.084;17.272;2022-12-29T00:04:29;13.68;;;9.40;;
62610;SDS011;48683;48.084;17.272;2022-12-29T00:06:55;17.75;;;10.32;;
62610;SDS011;48683;48.084;17.272;2022-12-29T00:09:21;19.38;;;10.00;;
62610;SDS011;48683;48.084;17.272;2022-12-29T00:11:46;15.45;;;9.27;;
62610;SDS011;48683;48.084;17.272;2022-12-29T00:14:12;16.55;;;10.38;;
62610;SDS011;48683;48.084;17.272;2022-12-29T00:16:56;17.08;;;9.90;;
62610;SDS011;48683;48.084;17.272;2022-12-29T00:19:22;13.98;;;9.73;;
62610;SDS011;48683;48.084;17.272;2022-12-29T00:22:06;17.45;;;9.98;;
62610;SDS011;48683;48.084;17.272;2022-12-29T00:24:53;17.60;;;10.77;;
62610;SDS011;48683;48.084;17.272;2022-12-29T00:27:34;16.05;;;9.77;;
62610;SDS011;48683;48.084;17.272;2022-12-29T00:30:20;16.77;;;9.95;;
62610;SDS011;48683;48.084;17.272;2022-12-29T00:33:48;16.13;;;10.55;;
62610;SDS011;48683;48.084;17.272;2022-12-29T00:36:19;14.05;;;8.73;;
62610;SDS011;48683;48.084;17.272;2022-12-29T00:39:11;16.17;;;9.90;;
62610;SDS011;48683;48.084;17.272;2022-12-29T00:41:56;16.38;;;9.80;;
62610;SDS011;48683;48.084;17.272;2022-12-29T00:44:39;15.70;;;9.43;;
62610;SDS011;48683;48.084;17.272;2022-12-29T00:47:05;16.90;;;9.27;;
62610;SDS011;48683;48.084;17.272;2022-12-29T00:49:30;14.00;;;9.57;;
62610;SDS011;48683;48.084;17.272;2022-12-29T00:54:30;28.33;;;14.70;;
62610;SDS011;48683;48.084;17.272;2022-12-29T00:56:57;23.42;;;13.60;;
62610;SDS011;48683;48.084;17.272;2022-12-29T00:59:22;25.58;;;12.65;;
62610;SDS011;48683;48.084;17.272;2022-12-29T01:01:49;15.98;;;10.13;;
62610;SDS011;48683;48.084;17.272;2022-12-29T01:04:15;22.35;;;10.95;;
62610;SDS011;48683;48.084;17.272;2022-12-29T01:06:41;18.33;;;9.70;;
62610;SDS011;48683;48.084;17.272;2022-12-29T01:09:06;17.52;;;10.18;;
62610;SDS011;48683;48.084;17.272;2022-12-29T01:11:51;18.63;;;11.10;;
62610;SDS011;48683;48.084;17.272;2022-12-29T01:14:17;15.48;;;10.35;;
62610;SDS011;48683;48.084;17.272;2022-12-29T01:16:43;15.18;;;9.43;;
62610;SDS011;48683;48.084;17.272;2022-12-29T01:19:10;18.60;;;10.47;;
62610;SDS011;48683;48.084;17.272;2022-12-29T01:21:35;15.63;;;9.75;;
62610;SDS011;48683;48.084;17.272;2022-12-29T01:24:01;17.98;;;9.82;;
62610;SDS011;48683;48.084;17.272;2022-12-29T01:26:27;16.48;;;10.32;;
62610;SDS011;48683;48.084;17.272;2022-12-29T01:28:52;15.65;;;9.85;;
62610;SDS011;48683;48.084;17.272;2022-12-29T01:31:17;14.75;;;9.35;;
62610;SDS011;48683;48.084;17.272;2022-12-29T01:33:43;15.73;;;9.02;;
62610;SDS011;48683;48.084;17.272;2022-12-29T01:36:11;16.75;;;9.95;;
62610;SDS011;48683;48.084;17.272;2022-12-29T01:38:38;21.90;;;9.90;;
62610;SDS011;48683;48.084;17.272;2022-12-29T01:41:05;16.42;;;9.65;;
62610;SDS011;48683;48.084;17.272;2022-12-29T01:46:26;16.83;;;10.13;;
62610;SDS011;48683;48.084;17.272;2022-12-29T01:48:58;23.63;;;9.10;;
62610;SDS011;48683;48.084;17.272;2022-12-29T01:51:33;18.02;;;8.55;;
62610;SDS011;48683;48.084;17.272;2022-12-29T01:54:02;18.15;;;9.65;;
62610;SDS011;48683;48.084;17.272;2022-12-29T01:56:34;18.38;;;10.45;;
62610;SDS011;48683;48.084;17.272;2022-12-29T01:59:02;21.87;;;10.93;;
62610;SDS011;48683;48.084;17.272;2022-12-29T02:01:31;20.98;;;10.68;;
62610;SDS011;48683;48.084;17.272;2022-12-29T02:03:57;18.10;;;10.88;;
62610;SDS011;48683;48.084;17.272;2022-12-29T02:06:24;23.05;;;10.40;;
62610;SDS011;48683;48.084;17.272;2022-12-29T02:08:54;23.30;;;10.80;;
62610;SDS011;48683;48.084;17.272;2022-12-29T02:11:21;17.95;;;10.38;;
62610;SDS011;48683;48.084;17.272;2022-12-29T02:13:50;17.42;;;9.95;;
62610;SDS011;48683;48.084;17.272;2022-12-29T02:33:06;19.80;;;10.38;;
62610;SDS011;48683;48.084;17.272;2022-12-29T02:41:27;18.10;;;11.35;;
62610;SDS011;48683;48.084;17.272;2022-12-29T02:46:41;17.92;;;11.38;;
62610;SDS011;48683;48.084;17.272;2022-12-29T02:52:46;18.88;;;11.70;;
62610;SDS011;48683;48.084;17.272;2022-12-29T02:55:04;20.63;;;10.32;;
62610;SDS011;48683;48.084;17.272;2022-12-29T02:57:33;22.33;;;11.13;;
62610;SDS011;48683;48.084;17.272;2022-12-29T03:00:01;20.75;;;12.10;;
62610;SDS011;48683;48.084;17.272;2022-12-29T03:11:01;19.55;;;11.10;;
62610;SDS011;48683;48.084;17.272;2022-12-29T03:13:52;23.73;;;12.13;;
62610;SDS011;48683;48.084;17.272;2022-12-29T03:16:53;20.67;;;11.30;;
62610;SDS011;48683;48.084;17.272;2022-12-29T03:19:31;20.23;;;11.23;;
62610;SDS011;48683;48.084;17.272;2022-12-29T03:27:49;20.70;;;11.55;;
62610;SDS011;48683;48.084;17.272;2022-12-29T03:30:18;17.25;;;10.32;;
62610;SDS011;48683;48.084;17.272;2022-12-29T03:32:45;20.85;;;11.88;;
62610;SDS011;48683;48.084;17.272;2022-12-29T03:35:15;21.30;;;12.25;;
62610;SDS011;48683;48.084;17.272;2022-12-29T03:37:46;21.60;;;12.15;;
62610;SDS011;48683;48.084;17.272;2022-12-29T03:40:18;19.20;;;11.48;;
62610;SDS011;48683;48.084;17.272;2022-12-29T03:42:45;24.05;;;11.38;;
62610;SDS011;48683;48.084;17.272;2022-12-29T03:45:13;20.30;;;11.98;;
62610;SDS011;48683;48.084;17.272;2022-12-29T03:47:38;21.98;;;12.18;;
62610;SDS011;48683;48.084;17.272;2022-12-29T03:50:04;19.13;;;11.68;;
62610;SDS011;48683;48.084;17.272;2022-12-29T03:52:29;21.48;;;11.65;;
62610;SDS011;48683;48.084;17.272;2022-12-29T03:54:55;25.48;;;12.05;;
62610;SDS011;48683;48.084;17.272;2022-12-29T03:57:20;21.35;;;12.55;;
62610;SDS011;48683;48.084;17.272;2022-12-29T03:59:45;21.30;;;13.10;;
62610;SDS011;48683;48.084;17.272;2022-12-29T04:02:11;22.58;;;12.82;;
62610;SDS011;48683;48.084;17.272;2022-12-29T04:04:36;22.77;;;12.50;;
62610;SDS011;48683;48.084;17.272;2022-12-29T04:07:01;21.33;;;13.45;;
62610;SDS011;48683;48.084;17.272;2022-12-29T04:09:27;27.75;;;13.00;;
62610;SDS011;48683;48.084;17.272;2022-12-29T04:11:52;19.85;;;12.77;;
62610;SDS011;48683;48.084;17.272;2022-12-29T04:14:18;20.00;;;12.63;;
62610;SDS011;48683;48.084;17.272;2022-12-29T04:16:43;26.88;;;14.13;;
62610;SDS011;48683;48.084;17.272;2022-12-29T04:19:08;21.55;;;12.90;;
62610;SDS011;48683;48.084;17.272;2022-12-29T04:21:34;20.42;;;12.90;;
62610;SDS011;48683;48.084;17.272;2022-12-29T04:23:59;21.95;;;13.38;;
62610;SDS011;48683;48.084;17.272;2022-12-29T04:26:25;24.25;;;14.43;;
62610;SDS011;48683;48.084;17.272;2022-12-29T04:28:50;21.77;;;13.77;;
62610;SDS011;48683;48.084;17.272;2022-12-29T04:31:15;25.20;;;14.73;;
62610;SDS011;48683;48.084;17.272;2022-12-29T04:33:41;24.98;;;14.43;;
62610;SDS011;48683;48.084;17.272;2022-12-29T04:36:06;20.45;;;14.65;;
62610;SDS011;48683;48.084;17.272;2022-12-29T04:38:32;24.35;;;14.32;;
62610;SDS011;48683;48.084;17.272;2022-12-29T04:41:00;32.28;;;15.65;;
62610;SDS011;48683;48.084;17.272;2022-12-29T04:43:27;23.33;;;14.55;;
62610;SDS011;48683;48.084;17.272;2022-12-29T04:45:52;27.83;;;14.35;;
62610;SDS011;48683;48.084;17.272;2022-12-29T04:48:18;27.38;;;15.32;;
62610;SDS011;48683;48.084;17.272;2022-12-29T04:50:43;28.10;;;15.38;;
62610;SDS011;48683;48.084;17.272;2022-12-29T04:53:08;27.88;;;15.10;;
62610;SDS011;48683;48.084;17.272;2022-12-29T04:55:34;27.40;;;15.65;;
62610;SDS011;48683;48.084;17.272;2022-12-29T04:57:59;25.25;;;14.85;;
62610;SDS011;48683;48.084;17.272;2022-12-29T05:00:25;27.25;;;15.07;;
62610;SDS011;48683;48.084;17.272;2022-12-29T05:02:50;26.23;;;15.27;;
62610;SDS011;48683;48.084;17.272;2022-12-29T05:05:16;25.48;;;14.25;;
62610;SDS011;48683;48.084;17.272;2022-12-29T05:07:41;23.83;;;15.20;;
62610;SDS011;48683;48.084;17.272;2022-12-29T05:10:07;26.02;;;15.90;;
62610;SDS011;48683;48.084;17.272;2022-12-29T05:12:33;26.20;;;15.32;;
62610;SDS011;48683;48.084;17.272;2022-12-29T05:15:00;27.20;;;15.90;;
62610;SDS011;48683;48.084;17.272;2022-12-29T05:17:27;23.02;;;14.50;;
62610;SDS011;48683;48.084;17.272;2022-12-29T05:19:52;24.55;;;14.45;;
62610;SDS011;48683;48.084;17.272;2022-12-29T05:22:17;27.52;;;15.00;;
62610;SDS011;48683;48.084;17.272;2022-12-29T05:24:43;24.73;;;14.63;;
62610;SDS011;48683;48.084;17.272;2022-12-29T05:27:08;26.80;;;14.15;;
62610;SDS011;48683;48.084;17.272;2022-12-29T05:29:34;23.65;;;14.63;;
62610;SDS011;48683;48.084;17.272;2022-12-29T05:31:59;33.75;;;15.48;;
62610;SDS011;48683;48.084;17.272;2022-12-29T05:34:25;25.38;;;14.68;;
62610;SDS011;48683;48.084;17.272;2022-12-29T05:36:50;22.60;;;14.80;;
62610;SDS011;48683;48.084;17.272;2022-12-29T05:39:15;29.33;;;15.55;;
62610;SDS011;48683;48.084;17.272;2022-12-29T05:41:41;24.70;;;15.23;;
62610;SDS011;48683;48.084;17.272;2022-12-29T05:44:06;24.77;;;14.95;;
62610;SDS011;48683;48.084;17.272;2022-12-29T05:46:32;25.38;;;16.38;;
62610;SDS011;48683;48.084;17.272;2022-12-29T05:48:57;24.70;;;14.65;;
62610;SDS011;48683;48.084;17.272;2022-12-29T05:51:22;25.08;;;14.93;;
62610;SDS011;48683;48.084;17.272;2022-12-29T05:53:48;26.83;;;14.82;;
62610;SDS011;48683;48.084;17.272;2022-12-29T05:56:13;28.42;;;15.65;;
62610;SDS011;48683;48.084;17.272;2022-12-29T05:58:39;27.20;;;15.48;;
62610;SDS011;48683;48.084;17.272;2022-12-29T06:01:04;23.80;;;14.02;;
62610;SDS011;48683;48.084;17.272;2022-12-29T06:03:30;28.52;;;14.57;;
62610;SDS011;48683;48.084;17.272;2022-12-29T06:05:55;26.77;;;15.32;;
62610;SDS011;48683;48.084;17.272;2022-12-29T06:08:20;28.08;;;16.10;;
62610;SDS011;48683;48.084;17.272;2022-12-29T06:10:46;30.58;;;16.05;;
62610;SDS011;48683;48.084;17.272;2022-12-29T06:13:11;31.80;;;16.70;;
62610;SDS011;48683;48.084;17.272;2022-12-29T06:15:37;24.33;;;15.13;;
62610;SDS011;48683;48.084;17.272;2022-12-29T06:18:03;25.13;;;15.27;;
62610;SDS011;48683;48.084;17.272;2022-12-29T06:20:28;23.52;;;14.82;;
62610;SDS011;48683;48.084;17.272;2022-12-29T06:22:53;26.80;;;15.00;;
62610;SDS011;48683;48.084;17.272;2022-12-29T06:25:19;25.90;;;15.10;;
62610;SDS011;48683;48.084;17.272;2022-12-29T06:27:44;27.08;;;16.98;;
62610;SDS011;48683;48.084;17.272;2022-12-29T06:30:10;22.48;;;14.88;;
62610;SDS011;48683;48.084;17.272;2022-12-29T06:32:36;27.70;;;16.95;;
62610;SDS011;48683;48.084;17.272;2022-12-29T06:35:02;29.13;;;17.00;;
62610;SDS011;48683;48.084;17.272;2022-12-29T06:37:28;25.35;;;15.93;;
62610;SDS011;48683;48.084;17.272;2022-12-29T06:39:53;24.60;;;15.90;;
62610;SDS011;48683;48.084;17.272;2022-12-29T06:42:19;25.30;;;15.10;;
62610;SDS011;48683;48.084;17.272;2022-12-29T06:44:44;26.85;;;14.70;;
62610;SDS011;48683;48.084;17.272;2022-12-29T06:47:10;26.73;;;16.05;;
62610;SDS011;48683;48.084;17.272;2022-12-29T06:49:35;26.42;;;15.98;;
62610;SDS011;48683;48.084;17.272;2022-12-29T06:52:01;26.90;;;17.50;;
62610;SDS011;48683;48.084;17.272;2022-12-29T06:54:29;28.13;;;16.77;;
62610;SDS011;48683;48.084;17.272;2022-12-29T06:56:54;29.52;;;16.77;;
62610;SDS011;48683;48.084;17.272;2022-12-29T06:59:20;31.88;;;18.05;;
62610;SDS011;48683;48.084;17.272;2022-12-29T07:01:45;29.08;;;16.70;;
62610;SDS011;48683;48.084;17.272;2022-12-29T07:04:11;28.23;;;17.33;;
62610;SDS011;48683;48.084;17.272;2022-12-29T07:06:36;29.05;;;16.98;;
62610;SDS011;48683;48.084;17.272;2022-12-29T07:09:01;26.83;;;16.63;;
62610;SDS011;48683;48.084;17.272;2022-12-29T07:11:27;29.02;;;16.33;;
62610;SDS011;48683;48.084;17.272;2022-12-29T07:13:52;29.30;;;16.85;;
62610;SDS011;48683;48.084;17.272;2022-12-29T07:16:17;28.27;;;17.42;;
62610;SDS011;48683;48.084;17.272;2022-12-29T07:18:43;29.50;;;16.77;;
62610;SDS011;48683;48.084;17.272;2022-12-29T07:21:08;32.47;;;17.58;;
62610;SDS011;48683;48.084;17.272;2022-12-29T07:23:34;29.92;;;16.98;;
62610;SDS011;48683;48.084;17.272;2022-12-29T07:26:03;25.60;;;16.08;;
62610;SDS011;48683;48.084;17.272;2022-12-29T07:28:31;33.42;;;17.52;;
62610;SDS011;48683;48.084;17.272;2022-12-29T07:30:57;30.25;;;18.20;;
62610;SDS011;48683;48.084;17.272;2022-12-29T07:33:23;37.00;;;20.23;;
62610;SDS011;48683;48.084;17.272;2022-12-29T07:35:48;38.65;;;19.83;;
62610;SDS011;48683;48.084;17.272;2022-12-29T07:38:13;33.15;;;18.63;;
62610;SDS011;48683;48.084;17.272;2022-12-29T07:40:39;31.88;;;17.33;;
62610;SDS011;48683;48.084;17.272;2022-12-29T07:43:05;25.65;;;16.27;;
62610;SDS011;48683;48.084;17.272;2022-12-29T07:45:30;29.70;;;17.10;;
62610;SDS011;48683;48.084;17.272;2022-12-29T07:47:56;27.20;;;16.70;;
62610;SDS011;48683;48.084;17.272;2022-12-29T07:50:21;29.33;;;17.50;;
62610;SDS011;48683;48.084;17.272;2022-12-29T07:52:46;30.10;;;17.45;;
62610;SDS011;48683;48.084;17.272;2022-12-29T07:55:13;32.45;;;18.52;;
62610;SDS011;48683;48.084;17.272;2022-12-29T07:57:39;30.15;;;17.80;;
62610;SDS011;48683;48.084;17.272;2022-12-29T08:00:04;36.38;;;18.92;;
62610;SDS011;48683;48.084;17.272;2022-12-29T08:02:30;31.17;;;18.48;;
62610;SDS011;48683;48.084;17.272;2022-12-29T08:04:55;29.50;;;17.25;;
62610;SDS011;48683;48.084;17.272;2022-12-29T08:07:21;30.98;;;17.30;;
62610;SDS011;48683;48.084;17.272;2022-12-29T08:09:46;31.05;;;18.35;;
62610;SDS011;48683;48.084;17.272;2022-12-29T08:12:12;30.63;;;18.27;;
62610;SDS011;48683;48.084;17.272;2022-12-29T08:14:38;27.35;;;16.70;;
62610;SDS011;48683;48.084;17.272;2022-12-29T08:17:03;30.30;;;17.35;;
62610;SDS011;48683;48.084;17.272;2022-12-29T08:19:28;29.30;;;17.45;;
62610;SDS011;48683;48.084;17.272;2022-12-29T08:21:54;28.95;;;17.88;;
62610;SDS011;48683;48.084;17.272;2022-12-29T08:24:19;27.90;;;16.95;;
62610;SDS011;48683;48.084;17.272;2022-12-29T08:26:45;25.02;;;15.75;;
62610;SDS011;48683;48.084;17.272;2022-12-29T08:29:10;31.48;;;16.77;;
62610;SDS011;48683;48.084;17.272;2022-12-29T08:31:36;23.77;;;15.52;;
62610;SDS011;48683;48.084;17.272;2022-12-29T08:34:01;27.35;;;16.75;;
62610;SDS011;48683;48.084;17.272;2022-12-29T08:36:28;26.83;;;16.55;;
62610;SDS011;48683;48.084;17.272;2022-12-29T08:38:54;26.20;;;16.20;;
62610;SDS011;48683;48.084;17.272;2022-12-29T08:41:19;24.70;;;15.70;;
62610;SDS011;48683;48.084;17.272;2022-12-29T08:43:46;29.75;;;16.58;;
62610;SDS011;48683;48.084;17.272;2022-12-29T08:46:12;26.88;;;17.20;;
62610;SDS011;48683;48.084;17.272;2022-12-29T08:48:37;27.25;;;17.27;;
62610;SDS011;48683;48.084;17.272;2022-12-29T08:51:03;30.58;;;17.13;;
62610;SDS011;48683;48.084;17.272;2022-12-29T08:53:28;25.27;;;15.50;;
62610;SDS011;48683;48.084;17.272;2022-12-29T08:55:55;28.77;;;16.23;;
62610;SDS011;48683;48.084;17.272;2022-12-29T08:58:21;28.55;;;17.33;;
62610;SDS011;48683;48.084;17.272;2022-12-29T09:00:47;26.67;;;17.90;;
62610;SDS011;48683;48.084;17.272;2022-12-29T09:03:12;25.50;;;16.92;;
62610;SDS011;48683;48.084;17.272;2022-12-29T09:05:37;26.13;;;16.95;;
62610;SDS011;48683;48.084;17.272;2022-12-29T09:08:03;29.50;;;17.63;;
62610;SDS011;48683;48.084;17.272;2022-12-29T09:10:29;33.15;;;18.00;;
62610;SDS011;48683;48.084;17.272;2022-12-29T09:12:55;30.60;;;17.00;;
62610;SDS011;48683;48.084;17.272;2022-12-29T09:15:20;26.33;;;16.40;;
62610;SDS011;48683;48.084;17.272;2022-12-29T09:17:45;28.88;;;18.10;;
62610;SDS011;48683;48.084;17.272;2022-12-29T09:20:20;26.50;;;17.85;;
62610;SDS011;48683;48.084;17.272;2022-12-29T09:22:45;25.45;;;16.25;;
62610;SDS011;48683;48.084;17.272;2022-12-29T09:25:12;30.60;;;18.48;;
62610;SDS011;48683;48.084;17.272;2022-12-29T09:27:38;29.15;;;17.30;;
62610;SDS011;48683;48.084;17.272;2022-12-29T09:30:04;29.17;;;17.50;;
62610;SDS011;48683;48.084;17.272;2022-12-29T09:32:32;28.60;;;17.58;;
62610;SDS011;48683;48.084;17.272;2022-12-29T09:34:57;27.88;;;17.48;;
62610;SDS011;48683;48.084;17.272;2022-12-29T09:37:23;27.23;;;17.05;;
62610;SDS011;48683;48.084;17.272;2022-12-29T09:39:48;27.55;;;17.67;;
62610;SDS011;48683;48.084;17.272;2022-12-29T09:47:40;27.40;;;17.02;;
62610;SDS011;48683;48.084;17.272;2022-12-29T09:53:01;25.75;;;16.63;;
62610;SDS011;48683;48.084;17.272;2022-12-29T09:55:39;28.33;;;17.65;;
62610;SDS011;48683;48.084;17.272;2022-12-29T09:58:15;29.60;;;18.50;;
62610;SDS011;48683;48.084;17.272;2022-12-29T10:00:50;27.73;;;18.20;;
62610;SDS011;48683;48.084;17.272;2022-12-29T10:03:22;32.72;;;17.75;;
62610;SDS011;48683;48.084;17.272;2022-12-29T10:11:14;29.60;;;17.38;;
62610;SDS011;48683;48.084;17.272;2022-12-29T10:16:34;30.33;;;19.50;;
62610;SDS011;48683;48.084;17.272;2022-12-29T10:22:09;25.55;;;17.58;;
62610;SDS011;48683;48.084;17.272;2022-12-29T10:24:48;31.20;;;18.08;;
62610;SDS011;48683;48.084;17.272;2022-12-29T10:27:17;28.17;;;18.90;;
62610;SDS011;48683;48.084;17.272;2022-12-29T10:29:45;28.92;;;18.42;;
62610;SDS011;48683;48.084;17.272;2022-12-29T10:32:21;29.75;;;18.45;;
62610;SDS011;48683;48.084;17.272;2022-12-29T10:35:00;26.73;;;17.42;;
62610;SDS011;48683;48.084;17.272;2022-12-29T10:45:42;30.92;;;18.60;;
62610;SDS011;48683;48.084;17.272;2022-12-29T10:48:40;29.50;;;18.52;;
62610;SDS011;48683;48.084;17.272;2022-12-29T10:51:01;28.95;;;18.30;;
62610;SDS011;48683;48.084;17.272;2022-12-29T10:53:40;30.17;;;18.10;;
62610;SDS011;48683;48.084;17.272;2022-12-29T10:56:21;29.95;;;18.30;;
62610;SDS011;48683;48.084;17.272;2022-12-29T10:58:54;32.28;;;19.17;;
62610;SDS011;48683;48.084;17.272;2022-12-29T11:01:21;30.55;;;18.23;;
62610;SDS011;48683;48.084;17.272;2022-12-29T11:03:56;27.58;;;18.30;;
62610;SDS011;48683;48.084;17.272;2022-12-29T11:06:29;35.78;;;20.30;;
62610;SDS011;48683;48.084;17.272;2022-12-29T11:11:27;26.02;;;16.80;;
62610;SDS011;48683;48.084;17.272;2022-12-29T11:14:10;26.67;;;18.52;;
62610;SDS011;48683;48.084;17.272;2022-12-29T11:16:37;30.48;;;18.65;;
62610;SDS011;48683;48.084;17.272;2022-12-29T11:19:02;30.83;;;19.02;;
62610;SDS011;48683;48.084;17.272;2022-12-29T11:21:32;32.75;;;19.85;;
62610;SDS011;48683;48.084;17.272;2022-12-29T11:24:05;27.95;;;18.45;;
62610;SDS011;48683;48.084;17.272;2022-12-29T11:26:44;29.73;;;17.85;;
62610;SDS011;48683;48.084;17.272;2022-12-29T11:31:48;29.60;;;18.10;;
62610;SDS011;48683;48.084;17.272;2022-12-29T11:34:16;26.25;;;17.48;;
62610;SDS011;48683;48.084;17.272;2022-12-29T11:36:43;28.13;;;17.92;;
62610;SDS011;48683;48.084;17.272;2022-12-29T11:39:16;28.45;;;18.85;;
62610;SDS011;48683;48.084;17.272;2022-12-29T11:41:52;32.35;;;18.55;;
62610;SDS011;48683;48.084;17.272;2022-12-29T11:44:18;31.52;;;17.73;;
62610;SDS011;48683;48.084;17.272;2022-12-29T11:46:45;27.95;;;18.58;;
62610;SDS011;48683;48.084;17.272;2022-12-29T11:49:13;29.08;;;18.73;;
62610;SDS011;48683;48.084;17.272;2022-12-29T11:51:49;26.88;;;16.83;;
62610;SDS011;48683;48.084;17.272;2022-12-29T11:54:34;26.80;;;17.10;;
62610;SDS011;48683;48.084;17.272;2022-12-29T11:59:43;31.00;;;17.65;;
62610;SDS011;48683;48.084;17.272;2022-12-29T12:04:45;28.35;;;18.30;;
62610;SDS011;48683;48.084;17.272;2022-12-29T12:07:19;27.40;;;17.52;;
62610;SDS011;48683;48.084;17.272;2022-12-29T12:10:33;26.23;;;17.52;;
62610;SDS011;48683;48.084;17.272;2022-12-29T12:15:42;30.88;;;19.60;;
62610;SDS011;48683;48.084;17.272;2022-12-29T12:26:09;32.95;;;18.77;;
62610;SDS011;48683;48.084;17.272;2022-12-29T12:31:17;27.73;;;17.60;;
62610;SDS011;48683;48.084;17.272;2022-12-29T12:33:50;29.25;;;19.70;;
62610;SDS011;48683;48.084;17.272;2022-12-29T12:39:06;37.08;;;20.10;;
62610;SDS011;48683;48.084;17.272;2022-12-29T12:41:54;29.27;;;19.10;;
62610;SDS011;48683;48.084;17.272;2022-12-29T12:45:08;31.33;;;18.13;;
62610;SDS011;48683;48.084;17.272;2022-12-29T12:47:43;29.83;;;19.38;;
62610;SDS011;48683;48.084;17.272;2022-12-29T12:58:22;29.75;;;18.55;;
62610;SDS011;48683;48.084;17.272;2022-12-29T13:04:00;27.30;;;17.77;;
62610;SDS011;48683;48.084;17.272;2022-12-29T13:06:42;30.48;;;18.77;;
62610;SDS011;48683;48.084;17.272;2022-12-29T13:14:53;29.17;;;19.70;;
62610;SDS011;48683;48.084;17.272;2022-12-29T13:23:12;30.63;;;20.13;;
62610;SDS011;48683;48.084;17.272;2022-12-29T13:25:59;30.08;;;20.17;;
62610;SDS011;48683;48.084;17.272;2022-12-29T13:31:28;32.92;;;20.35;;
62610;SDS011;48683;48.084;17.272;2022-12-29T13:37:04;29.50;;;19.25;;
62610;SDS011;48683;48.084;17.272;2022-12-29T13:39:39;29.17;;;19.92;;
62610;SDS011;48683;48.084;17.272;2022-12-29T13:42:11;28.17;;;19.35;;
62610;SDS011;48683;48.084;17.272;2022-12-29T13:47:34;32.08;;;20.48;;
62610;SDS011;48683;48.084;17.272;2022-12-29T13:50:04;31.30;;;20.45;;
62610;SDS011;48683;48.084;17.272;2022-12-29T13:52:44;28.80;;;19.40;;
62610;SDS011;48683;48.084;17.272;2022-12-29T14:03:27;35.35;;;20.17;;
62610;SDS011;48683;48.084;17.272;2022-12-29T14:08:45;30.38;;;21.33;;
62610;SDS011;48683;48.084;17.272;2022-12-29T14:11:14;33.08;;;21.63;;
62610;SDS011;48683;48.084;17.272;2022-12-29T14:13:42;35.75;;;21.23;;
62610;SDS011;48683;48.084;17.272;2022-12-29T14:16:31;112.20;;;24.77;;
62610;SDS011;48683;48.084;17.272;2022-12-29T14:21:24;32.15;;;20.85;;
62610;SDS011;48683;48.084;17.272;2022-12-29T14:23:56;34.50;;;21.42;;
62610;SDS011;48683;48.084;17.272;2022-12-29T14:26:45;35.20;;;22.05;;
62610;SDS011;48683;48.084;17.272;2022-12-29T14:31:48;31.73;;;21.77;;
62610;SDS011;48683;48.084;17.272;2022-12-29T14:39:44;36.13;;;21.05;;
62610;SDS011;48683;48.084;17.272;2022-12-29T14:44:48;33.15;;;21.70;;
62610;SDS011;48683;48.084;17.272;2022-12-29T14:47:20;30.23;;;20.08;;
62610;SDS011;48683;48.084;17.272;2022-12-29T14:49:52;39.58;;;23.30;;
62610;SDS011;48683;48.084;17.272;2022-12-29T14:54:49;38.03;;;23.42;;
62610;SDS011;48683;48.084;17.272;2022-12-29T14:57:19;34.53;;;22.65;;
62610;SDS011;48683;48.084;17.272;2022-12-29T15:00:00;34.28;;;21.95;;
62610;SDS011;48683;48.084;17.272;2022-12-29T15:02:32;32.53;;;21.85;;
62610;SDS011;48683;48.084;17.272;2022-12-29T15:05:03;37.40;;;23.17;;
62610;SDS011;48683;48.084;17.272;2022-12-29T15:07:28;31.23;;;20.75;;
62610;SDS011;48683;48.084;17.272;2022-12-29T15:09:56;36.85;;;22.40;;
62610;SDS011;48683;48.084;17.272;2022-12-29T15:12:38;41.25;;;23.70;;
62610;SDS011;48683;48.084;17.272;2022-12-29T15:15:20;37.20;;;23.17;;
62610;SDS011;48683;48.084;17.272;2022-12-29T15:17:49;36.33;;;22.58;;
62610;SDS011;48683;48.084;17.272;2022-12-29T15:20:19;36.25;;;23.13;;
62610;SDS011;48683;48.084;17.272;2022-12-29T15:25:35;38.17;;;22.83;;
62610;SDS011;48683;48.084;17.272;2022-12-29T15:28:02;36.40;;;22.58;;
62610;SDS011;48683;48.084;17.272;2022-12-29T15:30:29;37.83;;;21.50;;
62610;SDS011;48683;48.084;17.272;2022-12-29T15:32:55;39.13;;;23.65;;
62610;SDS011;48683;48.084;17.272;2022-12-29T15:37:56;37.85;;;24.27;;
62610;SDS011;48683;48.084;17.272;2022-12-29T15:40:28;40.00;;;23.13;;
62610;SDS011;48683;48.084;17.272;2022-12-29T15:43:10;37.95;;;24.02;;
62610;SDS011;48683;48.084;17.272;2022-12-29T15:45:40;37.58;;;23.27;;
62610;SDS011;48683;48.084;17.272;2022-12-29T15:48:07;39.58;;;24.67;;
62610;SDS011;48683;48.084;17.272;2022-12-29T15:50:42;38.25;;;23.63;;
62610;SDS011;48683;48.084;17.272;2022-12-29T15:53:12;43.63;;;24.85;;
62610;SDS011;48683;48.084;17.272;2022-12-29T15:55:44;47.97;;;27.60;;
62610;SDS011;48683;48.084;17.272;2022-12-29T15:58:23;46.58;;;27.00;;
62610;SDS011;48683;48.084;17.272;2022-12-29T16:00:57;43.85;;;26.08;;
62610;SDS011;48683;48.084;17.272;2022-12-29T16:03:25;43.00;;;25.70;;
62610;SDS011;48683;48.084;17.272;2022-12-29T16:05:57;42.33;;;24.13;;
62610;SDS011;48683;48.084;17.272;2022-12-29T16:08:39;41.50;;;24.35;;
62610;SDS011;48683;48.084;17.272;2022-12-29T16:13:51;43.30;;;26.25;;
62610;SDS011;48683;48.084;17.272;2022-12-29T16:16:19;47.95;;;27.55;;
62610;SDS011;48683;48.084;17.272;2022-12-29T16:18:47;43.03;;;25.20;;
62610;SDS011;48683;48.084;17.272;2022-12-29T16:21:16;38.78;;;25.02;;
62610;SDS011;48683;48.084;17.272;2022-12-29T16:23:46;37.33;;;24.17;;
62610;SDS011;48683;48.084;17.272;2022-12-29T16:26:16;41.95;;;25.95;;
62610;SDS011;48683;48.084;17.272;2022-12-29T16:28:43;47.53;;;28.35;;
62610;SDS011;48683;48.084;17.272;2022-12-29T16:31:23;47.00;;;28.73;;
62610;SDS011;48683;48.084;17.272;2022-12-29T16:33:49;48.28;;;29.30;;
62610;SDS011;48683;48.084;17.272;2022-12-29T16:36:23;47.65;;;29.33;;
62610;SDS011;48683;48.084;17.272;2022-12-29T16:41:48;56.47;;;31.50;;
62610;SDS011;48683;48.084;17.272;2022-12-29T16:44:24;53.88;;;32.20;;
62610;SDS011;48683;48.084;17.272;2022-12-29T16:46:59;46.28;;;28.60;;
62610;SDS011;48683;48.084;17.272;2022-12-29T16:49:28;42.10;;;25.38;;
62610;SDS011;48683;48.084;17.272;2022-12-29T16:51:55;40.20;;;25.50;;
62610;SDS011;48683;48.084;17.272;2022-12-29T16:54:25;40.97;;;25.15;;
62610;SDS011;48683;48.084;17.272;2022-12-29T16:56:57;44.13;;;26.90;;
62610;SDS011;48683;48.084;17.272;2022-12-29T17:02:15;56.90;;;31.70;;
62610;SDS011;48683;48.084;17.272;2022-12-29T17:04:43;46.22;;;27.55;;
62610;SDS011;48683;48.084;17.272;2022-12-29T17:07:16;47.85;;;28.20;;
62610;SDS011;48683;48.084;17.272;2022-12-29T17:09:43;81.53;;;50.50;;
62610;SDS011;48683;48.084;17.272;2022-12-29T17:12:10;53.97;;;33.55;;
62610;SDS011;48683;48.084;17.272;2022-12-29T17:14:45;48.85;;;29.73;;
62610;SDS011;48683;48.084;17.272;2022-12-29T17:19:42;43.17;;;26.08;;
62610;SDS011;48683;48.084;17.272;2022-12-29T17:22:21;42.22;;;26.30;;